createdAt,value
2018-07-09T00:06:57.232Z,1016.55
2018-07-09T00:16:57.181Z,1016.64
2018-07-09T00:26:57.241Z,1016.64
2018-07-09T00:36:57.206Z,1016.67
2018-07-09T00:46:57.171Z,1016.63
2018-07-09T00:56:57.244Z,1016.55
2018-07-09T01:17:44.606Z,1016.4
2018-07-09T01:18:25.149Z,1016.54
2018-07-09T01:28:25.192Z,1016.45
2018-07-09T01:38:25.310Z,1016.41
2018-07-09T01:48:25.208Z,1016.5
2018-07-09T01:58:25.167Z,1016.5
2018-07-09T02:08:25.221Z,1016.44
2018-07-09T02:18:25.199Z,1016.43
2018-07-09T02:28:25.261Z,1016.38
2018-07-09T02:38:25.203Z,1016.45
2018-07-09T02:48:25.168Z,1016.5
2018-07-09T02:58:25.249Z,1016.47
2018-07-09T03:08:25.205Z,1016.61
2018-07-09T03:18:25.273Z,1016.77
2018-07-09T03:28:25.183Z,1016.81
2018-07-09T03:38:25.275Z,1016.77
2018-07-09T03:48:25.259Z,1016.73
2018-07-09T03:58:25.317Z,1016.77
2018-07-09T04:08:25.287Z,1016.75
2018-07-09T04:18:25.246Z,1016.74
2018-07-09T04:28:25.298Z,1016.77
2018-07-09T04:38:25.266Z,1016.83
2018-07-09T04:48:25.308Z,1016.84
2018-07-09T04:58:25.242Z,1016.81
2018-07-09T05:08:25.347Z,1016.7
2018-07-09T05:18:25.297Z,1016.66
2018-07-09T05:28:25.301Z,1016.77
2018-07-09T05:38:25.343Z,1016.68
2018-07-09T05:48:25.399Z,1016.65
2018-07-09T05:58:25.373Z,1016.77
2018-07-09T06:08:25.421Z,1016.79
2018-07-09T06:18:25.398Z,1016.74
2018-07-09T06:28:25.340Z,1016.72
2018-07-09T06:38:25.410Z,1016.65
2018-07-09T06:48:25.364Z,1016.77
2018-07-09T06:58:25.414Z,1016.86
2018-07-09T07:08:25.388Z,1016.8
2018-07-09T07:18:25.468Z,1016.59
2018-07-09T07:28:25.444Z,1016.45
2018-07-09T07:38:25.381Z,1016.44
2018-07-09T07:48:25.436Z,1016.33
2018-07-09T07:58:25.362Z,1016.31
2018-07-09T08:08:25.357Z,1016.25
2018-07-09T08:18:25.364Z,1016.46
2018-07-09T08:28:25.489Z,1016.47
2018-07-09T08:38:25.359Z,1016.41
2018-07-09T08:48:25.382Z,1016.14
2018-07-09T08:58:25.358Z,1016.15
2018-07-09T09:08:25.371Z,1015.94
2018-07-09T09:18:25.455Z,1015.97
2018-07-09T09:28:25.370Z,1015.95
2018-07-09T09:38:25.389Z,1015.95
2018-07-09T09:48:25.380Z,1015.9
2018-07-09T09:58:25.368Z,1015.87
2018-07-09T10:08:25.387Z,1015.9
2018-07-09T10:18:25.383Z,1015.94
2018-07-09T10:28:25.380Z,1015.78
2018-07-09T10:38:25.391Z,1015.72
2018-07-09T10:48:25.394Z,1015.79
2018-07-09T10:58:25.435Z,1015.73
2018-07-09T11:08:25.376Z,1015.66
2018-07-09T11:18:25.399Z,1015.68
2018-07-09T11:28:25.395Z,1015.59
2018-07-09T11:38:25.413Z,1015.66
2018-07-09T11:48:25.400Z,1015.52
2018-07-09T11:58:25.414Z,1015.41
2018-07-09T12:08:25.414Z,1015.33
2018-07-09T12:18:25.391Z,1015.3
2018-07-09T12:28:25.414Z,1015.13
2018-07-09T12:38:25.410Z,1015.17
2018-07-09T12:48:25.421Z,1014.94
2018-07-09T12:58:25.445Z,1014.85
2018-07-09T13:08:25.425Z,1014.78
2018-07-09T13:18:25.413Z,1014.65
2018-07-09T13:28:25.435Z,1014.56
2018-07-09T13:38:25.433Z,1014.49
2018-07-09T13:48:25.448Z,1014.31
2018-07-09T13:58:25.437Z,1014.22
2018-07-09T14:08:25.437Z,1014.22
2018-07-09T14:18:25.453Z,1014.07
2018-07-09T14:28:25.431Z,1014.03
2018-07-09T14:38:25.485Z,1013.98
2018-07-09T14:48:25.500Z,1013.9
2018-07-09T14:58:25.468Z,1013.93
2018-07-09T15:08:25.548Z,1013.87
2018-07-09T15:18:26.517Z,1013.8
2018-07-09T15:28:25.557Z,1013.71
2018-07-09T15:38:25.523Z,1013.59
2018-07-09T15:48:25.476Z,1013.49
2018-07-09T15:58:25.536Z,1013.35
2018-07-09T16:08:25.491Z,1013.31
2018-07-09T16:18:25.583Z,1013.18
2018-07-09T16:28:25.523Z,1013.11
2018-07-09T16:38:25.481Z,1013.08
2018-07-09T16:48:25.534Z,1013.13
2018-07-09T16:58:25.497Z,1013.18
2018-07-09T17:08:25.478Z,1013.22
2018-07-09T17:18:26.559Z,1013.29
2018-07-09T17:28:25.472Z,1013.14
2018-07-09T17:38:25.490Z,1013.23
2018-07-09T17:48:25.478Z,1013.2
2018-07-09T17:58:25.481Z,1013.24
2018-07-09T18:08:25.513Z,1013.31
2018-07-09T18:18:25.507Z,1013.37
2018-07-09T18:28:25.498Z,1013.29
2018-07-09T18:38:25.503Z,1013.26
2018-07-09T18:48:25.481Z,1013.24
2018-07-09T18:58:25.540Z,1013.12
2018-07-09T19:08:25.490Z,1013
2018-07-09T19:18:25.499Z,1013.05
2018-07-09T19:28:25.488Z,1012.97
2018-07-09T19:38:25.497Z,1013.15
2018-07-09T19:48:25.486Z,1013.07
2018-07-09T19:58:25.482Z,1013.03
2018-07-09T20:08:25.491Z,1013.04
2018-07-09T20:18:25.503Z,1013.04
2018-07-09T20:28:25.540Z,1013.06
2018-07-09T20:38:25.503Z,1012.99
2018-07-09T20:48:25.601Z,1012.99
2018-07-09T20:58:25.547Z,1013.15
2018-07-09T21:08:25.505Z,1012.95
2018-07-09T21:18:25.612Z,1012.95
2018-07-09T21:28:25.594Z,1012.94
2018-07-09T21:38:25.602Z,1012.8
2018-07-09T21:48:29.782Z,1012.75
2018-07-09T21:58:25.521Z,1012.86
2018-07-09T22:08:25.578Z,1012.97
2018-07-09T22:18:25.556Z,1012.79
2018-07-09T22:28:25.629Z,1012.67
2018-07-09T22:58:25.519Z,1012.53
